Map

Track Data

SID SEASON NUMBER BASIN SUBBASIN NAME ISO_TIME NATURE LAT LON WMO_WIND WMO_PRES WMO_AGENCY TRACK_TYPE DIST2LAND LANDFALL IFLAG USA_AGENCY USA_ATCF_ID USA_LAT USA_LON USA_RECORD USA_STATUS USA_WIND USA_PRES USA_SSHS USA_R34_NE USA_R34_SE USA_R34_SW USA_R34_NW USA_R50_NE USA_R50_SE USA_R50_SW USA_R50_NW USA_R64_NE USA_R64_SE USA_R64_SW USA_R64_NW USA_POCI USA_ROCI USA_RMW USA_EYE TOKYO_LAT TOKYO_LON TOKYO_GRADE TOKYO_WIND TOKYO_PRES TOKYO_R50_DIR TOKYO_R50_LONG TOKYO_R50_SHORT TOKYO_R30_DIR TOKYO_R30_LONG TOKYO_R30_SHORT TOKYO_LAND CMA_LAT CMA_LON CMA_CAT CMA_WIND CMA_PRES HKO_LAT HKO_LON HKO_CAT HKO_WIND HKO_PRES NEWDELHI_LAT NEWDELHI_LON NEWDELHI_GRADE NEWDELHI_WIND NEWDELHI_PRES NEWDELHI_CI NEWDELHI_DP NEWDELHI_POCI REUNION_LAT REUNION_LON REUNION_TYPE REUNION_WIND REUNION_PRES REUNION_TNUM REUNION_CI REUNION_RMW REUNION_R34_NE REUNION_R34_SE REUNION_R34_SW REUNION_R34_NW REUNION_R50_NE REUNION_R50_SE REUNION_R50_SW REUNION_R50_NW REUNION_R64_NE REUNION_R64_SE REUNION_R64_SW REUNION_R64_NW BOM_LAT BOM_LON BOM_TYPE BOM_WIND BOM_PRES BOM_TNUM BOM_CI BOM_RMW BOM_R34_NE BOM_R34_SE BOM_R34_SW BOM_R34_NW BOM_R50_NE BOM_R50_SE BOM_R50_SW BOM_R50_NW BOM_R64_NE BOM_R64_SE BOM_R64_SW BOM_R64_NW BOM_ROCI BOM_POCI BOM_EYE BOM_POS_METHOD BOM_PRES_METHOD NADI_LAT NADI_LON NADI_CAT NADI_WIND NADI_PRES WELLINGTON_LAT WELLINGTON_LON WELLINGTON_WIND WELLINGTON_PRES DS824_LAT DS824_LON DS824_STAGE DS824_WIND DS824_PRES TD9636_LAT TD9636_LON TD9636_STAGE TD9636_WIND TD9636_PRES TD9635_LAT TD9635_LON TD9635_WIND TD9635_PRES TD9635_ROCI NEUMANN_LAT NEUMANN_LON NEUMANN_CLASS NEUMANN_WIND NEUMANN_PRES MLC_LAT MLC_LON MLC_CLASS MLC_WIND MLC_PRES USA_GUST BOM_GUST BOM_GUST_PER REUNION_GUST REUNION_GUST_PER USA_SEAHGT USA_SEARAD_NE USA_SEARAD_SE USA_SEARAD_SW USA_SEARAD_NW STORM_SPEED STORM_DIR
1988214N18116 1988 45 WP MM NOT_NAMED 1988-07-31 18:00:00 TS 17.5000 116.000 main 426 426 __O___________ -1 17.5000 116.000 1 23 1001 5 287
1988214N18116 1988 45 WP MM NOT_NAMED 1988-07-31 21:00:00 TS 17.5752 115.737 main 459 459 __P___________ -1 17.5752 115.737 1 23 1001 6 302
1988214N18116 1988 45 WP MM NOT_NAMED 1988-08-01 00:00:00 TS 17.8000 115.500 main 487 470 __O___________ -1 17.8000 115.500 1 23 1001 8 328
1988214N18116 1988 45 WP MM NOT_NAMED 1988-08-01 03:00:00 TS 18.2498 115.288 main 470 409 __P___________ -1 18.2498 115.288 1 23 1001 10 332
1988214N18116 1988 45 WP MM NOT_NAMED 1988-08-01 06:00:00 TS 18.7000 115.000 main 409 374 __O___________ -1 18.7000 115.000 1 23 1001 10 313
1988214N18116 1988 45 WP MM NOT_NAMED 1988-08-01 09:00:00 TS 18.9101 114.537 main 370 321 __P___________ -1 18.9101 114.537 1 26 1001 10 288
1988214N18116 1988 45 WP MM NOT_NAMED 1988-08-01 12:00:00 TS 19.0000 114.000 main 321 268 __O___________ -1 19.0000 114.000 1 29 1001 10 280
1988214N18116 1988 45 WP MM NOT_NAMED 1988-08-01 15:00:00 TS 19.0799 113.500 main 268 217 __P___________ -1 19.0799 113.500 1 26 1001 10 276
1988214N18116 1988 45 WP MM NOT_NAMED 1988-08-01 18:00:00 TS 19.1000 113.000 main 217 171 __O___________ -1 19.1000 113.000 1 23 1002 10 267
1988214N18116 1988 45 WP MM NOT_NAMED 1988-08-01 21:00:00 TS 19.0274 112.492 main 171 124 __P___________ -1 19.0274 112.492 1 23 1002 10 264
1988214N18116 1988 45 WP MM NOT_NAMED 1988-08-02 00:00:00 TS 19.0000 112.000 main 124 68 __O___________ -1 19.0000 112.000 1 23 1002 9 280
1988214N18116 1988 45 WP MM NOT_NAMED 1988-08-02 03:00:00 TS 19.1850 111.520 main 68 23 __P___________ -1 19.1850 111.520 1 23 1002 9 295
1988214N18116 1988 45 WP MM NOT_NAMED 1988-08-02 06:00:00 TS 19.4000 111.100 main 23 0 __O___________ -1 19.4000 111.100 1 23 1002 7 294
1988214N18116 1988 45 WP MM NOT_NAMED 1988-08-02 09:00:00 TS 19.4567 110.860 main 0 0 __P___________ -1 19.4567 110.860 1 23 1001 6 280
1988214N18116 1988 45 WP MM NOT_NAMED 1988-08-02 12:00:00 TS 19.5000 110.500 main 0 0 __O___________ -1 19.5000 110.500 1 23 1001 11 278
1988214N18116 1988 45 WP MM NOT_NAMED 1988-08-02 15:00:00 TS 19.6063 109.665 main 0 0 __P___________ -1 19.6063 109.665 1 21 1001 16 281
1988214N18116 1988 45 WP MM NOT_NAMED 1988-08-02 18:00:00 TS 19.8000 108.800 main 35 35 __O___________ -1 19.8000 108.800 0 19 1001 14 292
1988214N18116 1988 45 WP MM NOT_NAMED 1988-08-02 21:00:00 TS 20.1194 108.310 main 88 83 __P___________ -1 20.1194 108.310 0 19 1001 10 313
1988214N18116 1988 45 WP MM NOT_NAMED 1988-08-03 00:00:00 TS 20.5000 108.000 main 83 33 __O___________ -1 20.5000 108.000 0 19 1001 10 324
1988214N18116 1988 45 WP MM NOT_NAMED 1988-08-03 03:00:00 TS 20.8949 107.698 main 33 10 __P___________ -1 20.8949 107.698 0 19 1001 8 326
1988214N18116 1988 45 WP MM NOT_NAMED 1988-08-03 06:00:00 TS 21.2000 107.500 main 10 0 __O___________ -1 21.2000 107.500 0 19 1001 5 327
1988214N18116 1988 45 WP MM NOT_NAMED 1988-08-03 09:00:00 TS 21.2949 107.420 main 0 0 __P___________ -1 21.2949 107.420 0 19 1001 1 317
1988214N18116 1988 45 WP MM NOT_NAMED 1988-08-03 12:00:00 TS 21.3000 107.400 main 0 0 __O___________ -1 21.3000 107.400 0 19 1001 1 310
1988214N18116 1988 45 WP MM NOT_NAMED 1988-08-03 15:00:00 TS 21.3575 107.350 main 0 0 __P___________ -1 21.3575 107.350 0 19 1001 1 317
1988214N18116 1988 45 WP MM NOT_NAMED 1988-08-03 18:00:00 TS 21.4000 107.300 main 0 0 __O___________ -1 21.4000 107.300 0 19 1001 1 296
1988214N18116 1988 45 WP MM NOT_NAMED 1988-08-03 21:00:00 TS 21.4000 107.257 main 0 0 __P___________ -1 21.4000 107.257 0 19 1001 1 270
1988214N18116 1988 45 WP MM NOT_NAMED 1988-08-04 00:00:00 TS 21.4000 107.200 main 0 0 __O___________ -1 21.4000 107.200 0 19 1002 1 285
1988214N18116 1988 45 WP MM NOT_NAMED 1988-08-04 03:00:00 TS 21.4375 107.110 main 0 0 __P___________ -1 21.4375 107.110 0 19 1001 2 299
1988214N18116 1988 45 WP MM NOT_NAMED 1988-08-04 06:00:00 TS 21.5000 107.000 main 0 __O___________ -1 21.5000 107.000 0 19 1001 2 302

Digital Typhoon Data and Search

About IBTrACS Database

This database is a web-friendly format of International Best Track Archive for Climate Stewardship (IBTrACS), a global best track data archive curated by NOAA dating back to 1842.

Updated: 2021-11-26